Terminal Aerodrome Forecast
Issued by NWS Goodland, KS

Home | Current Version | Previous Version | Text Only | Print | Product List | Glossary On
Versions: 1 2 3 4 5 6 7 8 9 10 11 12 13 14 15 16
000
FTUS43 KGLD 041723
TAFGLD
TAF
KGLD 041723Z 0418/0518 06009KT P6SM VCSH SCT025 OVC090
     FM042100 07009KT P6SM VCTS SCT015CB BKN035
     FM050200 09007KT P6SM -SHRA VCTS OVC015CB
     FM050800 12009KT 6SM -SHRA VCTS BKN007CB
     FM051200 13006KT 3SM SHRA BR VCTS OVC005CB
     FM051600 14015G23KT 5SM SHRA VCTS OVC008CB=

USA.gov is the U.S. government's official web portal to all federal, state and local government web resources and services.